Troy, Michigan
Current Conditions -  °F | °C
As of 9:55 AM on Tuesday 21 Oct 2014 (Local Time) from KVLL Reporting Station
Overcast Overcast  
Wind Chill: 43°   Ceiling: 2600
Heat Index: 47°   Visibility: 10mi
Dew Point: 42°   Wind: 7mph
Humidity: 84%   Direction: 350°N
Pressure: 30.02"   Gusts: 16mph
Location:  42.56°N, 83.15°W
Report Text: KVLL 211355Z AUTO 35006G14KT 10SM SCT011 SCT019 OVC026 08/06 A3002 RMK AO2 T00820056
Loading
Personal Weather Stations






























Interactive Weather Map
Tropical Storm Tracking
New forecast layout! Learn more

10-Day Weather Forecast

Advertisements
Track Severe Weather on mobile